Time;durP1;ratioP1;P1;durP2;ratioP2;P2;SDS_P1;SDS_P2;PMS_P1;PMS_P2;Temp;Humidity;BMP_temperature;BMP_pressure;BME280_temperature;BME280_humidity;BME280_pressure;Samples;Min_cycle;Max_cycle;Signal;HPM_P1;HPM_P2
2023/06/16 00:00:24;;;;;;;12.50;9.60;;;;;;;20.56;95.56;100049.55;109963;1272;139080;-76
2023/06/16 00:02:51;;;;;;;16.10;10.70;;;;;;;20.38;96.95;100044.88;110108;1262;22329;-79
2023/06/16 00:05:21;;;;;;;18.80;13.30;;;;;;;20.40;97.02;100046.25;109992;1272;140352;-79
2023/06/16 00:07:48;;;;;;;13.90;10.10;;;;;;;20.56;96.10;100047.05;110194;1272;22115;-75
2023/06/16 00:10:15;;;;;;;25.00;16.30;;;;;;;20.59;96.00;100047.23;110027;1272;138899;-73
2023/06/16 00:12:43;;;;;;;18.80;13.40;;;;;;;20.59;95.69;100043.98;109959;1273;140127;-75
2023/06/16 00:15:11;;;;;;;11.30;9.90;;;;;;;20.56;95.11;100042.95;110282;1271;22133;-78
2023/06/16 00:17:44;;;;;;;18.10;11.90;;;;;;;20.33;97.68;100041.21;109986;1272;140568;-78
2023/06/16 00:20:19;;;;;;;19.10;13.80;;;;;;;20.26;97.92;100041.77;109888;1273;139194;-76
2023/06/16 00:22:50;;;;;;;12.00;10.40;;;;;;;20.32;98.13;100036.66;110043;1275;22126;-76
2023/06/16 00:25:18;;;;;;;12.50;10.20;;;;;;;20.27;99.03;100033.05;109985;1278;139699;-77
2023/06/16 00:27:46;;;;;;;15.10;11.70;;;;;;;20.23;99.43;100032.38;109928;1274;22297;-73
2023/06/16 00:30:15;;;;;;;15.50;11.00;;;;;;;20.15;99.91;100028.52;110085;1272;139241;-75
2023/06/16 00:32:44;;;;;;;18.40;13.00;;;;;;;20.17;99.27;100028.80;109832;1272;139056;-75
2023/06/16 00:35:12;;;;;;;19.10;11.00;;;;;;;20.09;99.46;100028.21;109970;1260;23060;-76
2023/06/16 00:37:39;;;;;;;25.20;18.50;;;;;;;19.99;100.00;100024.63;110012;1272;138624;-78
2023/06/16 00:40:08;;;;;;;23.00;16.50;;;;;;;19.98;99.00;100025.37;109918;1272;139093;-78
2023/06/16 00:42:35;;;;;;;15.00;12.60;;;;;;;20.00;98.80;100027.88;110069;1278;22232;-77
2023/06/16 00:45:03;;;;;;;32.40;23.80;;;;;;;19.93;98.34;100026.19;109943;1273;138607;-75
2023/06/16 00:47:31;;;;;;;16.90;13.40;;;;;;;20.12;94.70;100025.05;109992;1279;22234;-74
2023/06/16 00:49:59;;;;;;;20.30;14.50;;;;;;;20.20;96.10;100021.85;109916;1273;138327;-78
2023/06/16 00:52:33;;;;;;;15.40;13.30;;;;;;;20.19;97.20;100019.73;109959;1274;139007;-79
2023/06/16 00:55:01;;;;;;;19.00;13.90;;;;;;;20.12;97.97;100021.97;110122;1273;22119;-77
2023/06/16 00:57:29;;;;;;;18.80;13.60;;;;;;;20.05;98.62;100021.05;109963;1262;141076;-76
2023/06/16 00:59:57;;;;;;;19.10;15.40;;;;;;;20.02;98.74;100020.20;110017;1273;22925;-77
2023/06/16 01:02:26;;;;;;;35.40;26.00;;;;;;;20.02;98.04;100022.38;110003;1272;140294;-76
2023/06/16 01:04:54;;;;;;;21.30;16.50;;;;;;;20.02;97.25;100021.67;109949;1278;138718;-71
2023/06/16 01:07:41;;;;;;;20.50;17.20;;;;;;;20.00;96.92;100022.02;110060;1275;22891;-77
2023/06/16 01:10:22;;;;;;;22.20;17.10;;;;;;;19.98;96.75;100020.71;109953;1274;140179;-76
2023/06/16 01:12:54;;;;;;;25.00;18.50;;;;;;;19.89;97.90;100021.18;109988;1261;139103;-76
2023/06/16 01:15:25;;;;;;;26.10;15.70;;;;;;;19.83;98.97;100023.09;110062;1274;22207;-75
2023/06/16 01:17:56;;;;;;;16.30;14.50;;;;;;;19.77;99.89;100023.29;109878;1270;139046;-74
2023/06/16 01:20:43;;;;;;;23.60;16.70;;;;;;;19.70;100.00;100022.17;109961;1278;139231;-78
2023/06/16 01:23:41;;;;;;;22.40;16.30;;;;;;;19.61;100.00;100023.40;110085;1273;22104;-82
2023/06/16 01:26:10;;;;;;;23.80;18.80;;;;;;;19.52;100.00;100023.30;109989;1272;140416;-79
2023/06/16 01:28:41;;;;;;;22.40;17.50;;;;;;;19.43;100.00;100024.95;109973;1270;140277;-80
2023/06/16 01:31:12;;;;;;;23.40;18.50;;;;;;;19.38;100.00;100025.44;110065;1259;22224;-79
2023/06/16 01:33:40;;;;;;;25.60;19.30;;;;;;;19.35;100.00;100023.02;110032;1274;140307;-80
2023/06/16 01:36:09;;;;;;;28.00;20.20;;;;;;;19.33;100.00;100026.25;110079;1274;138867;-80
2023/06/16 01:38:37;;;;;;;24.90;20.50;;;;;;;19.30;100.00;100026.70;110173;1274;22216;-82
2023/06/16 01:41:06;;;;;;;27.70;19.90;;;;;;;19.18;100.00;100015.71;110094;1273;139100;-81
2023/06/16 01:43:35;;;;;;;23.90;19.80;;;;;;;19.14;100.00;100015.55;110401;1272;22379;-75
2023/06/16 01:46:03;;;;;;;28.10;20.10;;;;;;;19.16;100.00;100026.13;110056;1263;139036;-80
2023/06/16 01:48:31;;;;;;;28.50;20.60;;;;;;;19.21;100.00;100028.02;109966;1271;139467;-78
2023/06/16 01:51:01;;;;;;;28.60;20.20;;;;;;;19.25;100.00;100021.40;110297;1275;22222;-82
2023/06/16 01:53:28;;;;;;;27.70;21.80;;;;;;;19.21;100.00;100022.66;109992;1270;138938;-77
2023/06/16 01:55:56;;;;;;;26.30;21.10;;;;;;;19.17;100.00;100019.96;110030;1278;22703;-80
2023/06/16 01:58:25;;;;;;;30.80;21.40;;;;;;;19.16;100.00;100017.47;109941;1275;138870;-75
2023/06/16 02:00:59;;;;;;;29.00;21.60;;;;;;;19.16;100.00;100018.55;109926;1274;140103;-78
2023/06/16 02:03:49;;;;;;;26.10;21.30;;;;;;;19.09;100.00;100007.40;110029;1274;23127;-80
2023/06/16 02:06:28;;;;;;;26.30;21.10;;;;;;;19.15;100.00;100021.39;110016;1259;139002;-80
2023/06/16 02:08:59;;;;;;;26.50;21.30;;;;;;;19.15;100.00;100023.40;110005;1273;141313;-79
2023/06/16 02:11:27;;;;;;;26.70;22.30;;;;;;;19.17;100.00;100021.04;110115;1272;22570;-79
2023/06/16 02:13:55;;;;;;;28.10;20.90;;;;;;;19.20;100.00;100021.60;109976;1273;139753;-79
2023/06/16 02:16:23;;;;;;;26.80;21.00;;;;;;;19.25;100.00;100019.78;110005;1257;139047;-78
2023/06/16 02:18:53;;;;;;;27.60;20.80;;;;;;;19.36;100.00;100017.73;110025;1275;22198;-80
2023/06/16 02:21:21;;;;;;;27.10;20.70;;;;;;;19.50;100.00;100015.50;109982;1278;139211;-81
2023/06/16 02:23:51;;;;;;;26.90;19.70;;;;;;;19.72;100.00;100019.83;110057;1273;22222;-80
2023/06/16 02:26:18;;;;;;;26.00;20.30;;;;;;;20.03;100.00;100019.61;109927;1275;140729;-80
2023/06/16 02:28:47;;;;;;;26.50;20.80;;;;;;;20.38;99.88;100018.40;109992;1271;139352;-77
2023/06/16 02:31:18;;;;;;;30.10;19.80;;;;;;;20.75;98.69;100010.71;110080;1260;22424;-78
2023/06/16 02:33:49;;;;;;;18.70;15.10;;;;;;;21.09;96.63;100011.20;109954;1273;138235;-80
2023/06/16 02:36:17;;;;;;;16.30;14.20;;;;;;;21.46;93.97;100013.31;109960;1273;139251;-79
2023/06/16 02:38:45;;;;;;;16.60;13.40;;;;;;;21.86;90.85;100014.82;110113;1277;22205;-80
2023/06/16 02:41:12;;;;;;;21.30;15.30;;;;;;;22.22;88.11;100012.48;110007;1278;138777;-78
2023/06/16 02:43:40;;;;;;;21.80;17.60;;;;;;;22.56;86.25;100013.02;110049;1278;22340;-78
2023/06/16 02:46:07;;;;;;;24.20;18.50;;;;;;;22.86;84.69;100014.27;110108;1272;138344;-78
2023/06/16 02:48:35;;;;;;;21.00;14.20;;;;;;;23.11;82.80;100012.72;109962;1275;139445;-78
2023/06/16 02:51:03;;;;;;;18.60;14.10;;;;;;;23.39;80.70;100014.42;110087;1278;22116;-76
2023/06/16 02:53:33;;;;;;;15.90;14.10;;;;;;;23.69;79.14;100021.73;109977;1277;139126;-77
2023/06/16 02:56:02;;;;;;;19.30;13.40;;;;;;;23.99;77.73;100023.20;110202;1278;22178;-76
2023/06/16 02:58:31;;;;;;;14.10;12.00;;;;;;;24.24;76.53;100022.42;110049;1273;23699;-78
2023/06/16 03:00:58;;;;;;;10.60;8.50;;;;;;;24.46;74.61;100023.96;110029;1260;138073;-77
2023/06/16 03:03:38;;;;;;;11.10;7.90;;;;;;;24.65;72.49;100020.99;110121;1274;22187;-77
2023/06/16 03:06:29;;;;;;;9.30;7.10;;;;;;;24.85;71.43;100021.20;109923;1278;22372;-77
2023/06/16 03:08:57;;;;;;;9.40;7.70;;;;;;;25.04;70.05;100018.08;109969;1278;137956;-81
2023/06/16 03:11:25;;;;;;;5.90;5.20;;;;;;;25.23;69.51;100016.96;110116;1275;22218;-81
2023/06/16 03:13:54;;;;;;;8.30;6.60;;;;;;;25.52;67.98;100016.18;109981;1275;137878;-80
2023/06/16 03:16:26;;;;;;;6.70;5.90;;;;;;;25.74;66.86;100016.55;109878;1275;138065;-79
2023/06/16 03:18:55;;;;;;;8.30;7.40;;;;;;;25.93;66.20;100018.34;110124;1275;22352;-81
2023/06/16 03:21:23;;;;;;;7.90;6.00;;;;;;;25.99;65.36;100008.63;110061;1275;139043;-79
2023/06/16 03:23:50;;;;;;;10.60;5.80;;;;;;;26.11;64.64;100009.01;110144;1272;22200;-79
2023/06/16 03:26:18;;;;;;;6.50;5.30;;;;;;;26.37;64.03;100015.48;109992;1272;137653;-79
2023/06/16 03:29:05;;;;;;;8.30;6.00;;;;;;;26.58;63.15;100013.25;109957;1276;137855;-78
2023/06/16 03:31:33;;;;;;;6.50;5.30;;;;;;;26.80;62.40;100012.67;110060;1278;22238;-79
2023/06/16 03:36:16;;;;;;;7.00;5.40;;;;;;;26.72;61.59;100015.40;103724;1304;545032;-77
2023/06/16 03:38:44;;;;;;;8.00;5.50;;;;;;;26.49;61.86;100016.86;105707;1273;25473;-79
2023/06/16 03:41:13;;;;;;;6.10;5.50;;;;;;;26.13;62.64;100013.19;105688;1286;137710;-79
2023/06/16 03:43:40;;;;;;;7.30;5.20;;;;;;;25.78;63.59;100018.89;105836;1287;22532;-81
2023/06/16 03:46:08;;;;;;;6.50;5.90;;;;;;;25.43;65.32;100016.27;109262;1285;137080;-80
2023/06/16 03:48:36;;;;;;;6.90;5.60;;;;;;;25.07;66.82;100021.70;109162;1284;138719;-78
2023/06/16 03:51:04;;;;;;;6.70;5.40;;;;;;;24.71;68.24;100025.84;110136;1277;251097;-80
2023/06/16 03:53:31;;;;;;;8.00;5.60;;;;;;;24.39;69.50;100023.55;110163;1269;138708;-81
2023/06/16 03:55:59;;;;;;;9.80;6.70;;;;;;;24.12;70.85;100028.81;110290;1258;22208;-79
2023/06/16 03:58:28;;;;;;;7.90;6.70;;;;;;;23.91;72.15;100026.17;110180;1269;137824;-79
2023/06/16 04:00:56;;;;;;;14.80;8.50;;;;;;;23.81;73.10;100033.69;109995;1269;138411;-77
2023/06/16 04:03:26;;;;;;;12.30;6.90;;;;;;;23.86;73.55;100025.70;110179;1269;22323;-78
2023/06/16 04:05:54;;;;;;;13.40;7.60;;;;;;;24.10;73.34;100027.46;110008;1272;138832;-76
2023/06/16 04:08:21;;;;;;;11.40;8.00;;;;;;;24.61;72.11;100028.81;110139;1270;138249;-77
2023/06/16 04:10:49;;;;;;;8.80;7.40;;;;;;;25.26;69.97;100028.91;110178;1272;22134;-71
2023/06/16 04:13:16;;;;;;;10.20;7.10;;;;;;;25.81;68.47;100024.64;110004;1269;138361;-70
2023/06/16 04:15:44;;;;;;;7.30;5.60;;;;;;;26.17;67.18;100021.81;110282;1269;22337;-73
2023/06/16 04:18:13;;;;;;;10.80;7.20;;;;;;;26.48;65.32;100016.11;110014;1259;138636;-71
2023/06/16 04:20:41;;;;;;;6.00;5.40;;;;;;;26.98;63.05;100023.98;110095;1270;137994;-73
2023/06/16 04:23:09;;;;;;;8.10;5.90;;;;;;;27.46;60.87;100025.31;110237;1270;22148;-74
2023/06/16 04:25:37;;;;;;;8.30;6.00;;;;;;;27.96;59.11;100026.06;110017;1256;138468;-78
2023/06/16 04:28:05;;;;;;;8.80;6.50;;;;;;;28.49;57.20;100028.70;110096;1260;137602;-73
2023/06/16 04:30:33;;;;;;;10.30;6.00;;;;;;;28.95;55.30;100026.05;110145;1269;22341;-74
2023/06/16 04:33:01;;;;;;;9.20;5.20;;;;;;;29.20;54.53;100027.90;110048;1259;137279;-77
2023/06/16 04:35:31;;;;;;;6.00;5.00;;;;;;;29.37;53.48;100030.54;110227;1259;22241;-75
2023/06/16 04:38:01;;;;;;;7.10;5.10;;;;;;;29.56;53.07;100025.27;110128;1271;139424;-74
2023/06/16 04:40:29;;;;;;;20.40;6.50;;;;;;;29.79;51.78;100020.59;109986;1269;140026;-72
2023/06/16 04:42:56;;;;;;;8.00;4.20;;;;;;;30.04;51.05;100018.45;110274;1270;22315;-74
2023/06/16 04:45:24;;;;;;;6.30;4.30;;;;;;;30.25;50.31;100019.27;110117;1269;137441;-74
2023/06/16 04:47:53;;;;;;;7.90;4.50;;;;;;;30.47;49.75;100022.70;110181;1270;23070;-73
2023/06/16 04:50:20;;;;;;;8.30;4.40;;;;;;;30.65;48.49;100020.88;110026;1270;138482;-76
2023/06/16 04:52:49;;;;;;;6.90;3.90;;;;;;;30.86;48.11;100018.41;110165;1263;138211;-76
2023/06/16 04:55:17;;;;;;;5.50;3.50;;;;;;;30.98;48.34;100026.27;110206;1270;22235;-73
2023/06/16 04:57:45;;;;;;;6.80;3.60;;;;;;;31.03;47.20;100024.73;110091;1269;138761;-74
2023/06/16 05:00:13;;;;;;;8.10;2.90;;;;;;;30.96;46.58;100026.21;110140;1270;138410;-74
2023/06/16 05:02:41;;;;;;;5.00;2.70;;;;;;;30.76;46.39;100031.34;110279;1269;23175;-70
2023/06/16 05:05:08;;;;;;;2.90;2.60;;;;;;;30.52;46.19;100037.91;110147;1269;137202;-76
2023/06/16 05:07:37;;;;;;;5.30;2.30;;;;;;;30.25;45.10;100035.92;110008;1272;22332;-85
2023/06/16 05:10:06;;;;;;;4.70;2.30;;;;;;;30.15;45.63;100036.33;110128;1269;137813;-70
2023/06/16 05:12:34;;;;;;;4.50;2.30;;;;;;;30.19;45.68;100034.77;109804;1270;139953;-68
2023/06/16 05:15:02;;;;;;;6.40;1.90;;;;;;;30.17;45.20;100035.41;110136;1272;22985;-67
2023/06/16 05:17:30;;;;;;;5.40;2.30;;;;;;;30.04;45.85;100035.52;110003;1272;137966;-69
2023/06/16 05:19:58;;;;;;;5.20;2.70;;;;;;;30.01;46.22;100034.68;110044;1269;22318;-75
2023/06/16 05:22:26;;;;;;;6.50;2.70;;;;;;;30.02;45.62;100035.33;110142;1270;138552;-74
2023/06/16 05:24:56;;;;;;;4.00;2.50;;;;;;;29.92;45.80;100025.10;109899;1270;137429;-74
2023/06/16 05:27:24;;;;;;;4.80;2.70;;;;;;;29.92;45.50;100026.17;110270;1269;22108;-74
2023/06/16 05:29:54;;;;;;;7.50;2.70;;;;;;;30.17;44.99;100024.98;110102;1270;137250;-78
2023/06/16 05:32:26;;;;;;;2.50;1.50;;;;;;;30.41;44.08;100025.37;110010;1267;138287;-72
2023/06/16 05:34:55;;;;;;;8.10;2.70;;;;;;;30.55;42.66;100025.39;110196;1269;22104;-78
2023/06/16 05:37:23;;;;;;;6.20;2.70;;;;;;;30.56;43.08;100030.36;109997;1270;137012;-81
2023/06/16 05:39:51;;;;;;;5.10;1.80;;;;;;;30.51;42.49;100031.03;110273;1269;22727;-77
2023/06/16 05:42:19;;;;;;;6.40;1.60;;;;;;;30.51;41.36;100036.30;109996;1270;136999;-66
2023/06/16 05:44:47;;;;;;;8.50;1.70;;;;;;;30.38;40.62;100039.94;110016;1269;138757;-74
2023/06/16 05:47:15;;;;;;;7.30;1.60;;;;;;;30.12;40.86;100041.25;110336;1269;23019;-71
2023/06/16 05:49:43;;;;;;;6.30;1.60;;;;;;;29.91;41.01;100040.72;110129;1270;137186;-73
2023/06/16 05:52:11;;;;;;;7.30;1.60;;;;;;;29.74;41.53;100045.95;110099;1270;138834;-75
2023/06/16 05:54:40;;;;;;;11.60;1.80;;;;;;;29.72;41.07;100044.44;110244;1270;22285;-72
2023/06/16 05:57:10;;;;;;;4.00;2.00;;;;;;;29.80;41.69;100037.49;110043;1272;137535;-76
2023/06/16 05:59:38;;;;;;;9.40;1.70;;;;;;;29.91;41.45;100037.74;110231;1270;22190;-71
2023/06/16 06:02:05;;;;;;;6.60;1.40;;;;;;;29.98;41.04;100038.13;110146;1270;138509;-71
2023/06/16 06:04:33;;;;;;;7.30;2.10;;;;;;;30.00;40.24;100038.24;110178;1270;138244;-71
2023/06/16 06:07:04;;;;;;;6.10;1.30;;;;;;;30.19;39.65;100035.20;110214;1272;22192;-74
2023/06/16 06:09:32;;;;;;;5.60;1.10;;;;;;;30.52;38.99;100034.88;110061;1270;138598;-70
2023/06/16 06:11:59;;;;;;;6.90;1.40;;;;;;;30.74;38.33;100032.61;110139;1270;22189;-77
2023/06/16 06:14:27;;;;;;;2.50;1.10;;;;;;;30.84;38.29;100033.95;110205;1269;138368;-70
2023/06/16 06:16:55;;;;;;;3.80;1.90;;;;;;;30.85;38.41;100029.73;109922;1269;138381;-70
2023/06/16 06:19:24;;;;;;;11.20;1.90;;;;;;;30.74;38.53;100029.23;110205;1270;22316;-68
2023/06/16 06:21:51;;;;;;;3.70;1.00;;;;;;;30.64;38.09;100031.81;109911;1261;139269;-68
2023/06/16 06:24:20;;;;;;;2.80;1.20;;;;;;;30.50;38.48;100031.77;110121;1270;139108;-67
2023/06/16 06:26:48;;;;;;;4.50;1.50;;;;;;;30.33;38.59;100036.58;110198;1269;22303;-66
2023/06/16 06:29:15;;;;;;;10.10;1.80;;;;;;;30.28;38.73;100033.36;110156;1270;138033;-65
2023/06/16 06:31:43;;;;;;;5.60;1.50;;;;;;;30.05;38.71;100030.73;110151;1269;22194;-67
2023/06/16 06:34:11;;;;;;;6.30;1.60;;;;;;;29.90;39.49;100026.89;109970;1269;137847;-70
2023/06/16 06:36:39;;;;;;;3.40;1.10;;;;;;;29.99;40.16;100021.17;110214;1269;138275;-72
2023/06/16 06:39:08;;;;;;;4.60;1.70;;;;;;;30.22;39.53;100024.88;110252;1269;22324;-73
2023/06/16 06:41:36;;;;;;;5.80;1.60;;;;;;;30.38;38.76;100028.52;110163;1269;138345;-70
2023/06/16 06:44:10;;;;;;;6.90;1.40;;;;;;;30.51;38.11;100023.20;110219;1269;137853;-70
2023/06/16 06:46:43;;;;;;;4.20;1.00;;;;;;;30.62;36.20;100022.29;110144;1269;22363;-67
2023/06/16 06:49:11;;;;;;;2.60;0.90;;;;;;;30.69;32.91;100022.17;109969;1269;139505;-69
2023/06/16 06:51:38;;;;;;;5.10;0.80;;;;;;;30.66;33.40;100021.36;110147;1270;22310;-67
2023/06/16 06:54:09;;;;;;;1.70;0.90;;;;;;;30.92;33.32;100020.20;110017;1270;140107;-70
2023/06/16 06:56:36;;;;;;;4.50;1.50;;;;;;;31.08;33.07;100021.40;109942;1260;137869;-69
2023/06/16 06:59:03;;;;;;;4.70;1.20;;;;;;;31.13;33.00;100019.36;110121;1270;22123;-70
2023/06/16 07:01:31;;;;;;;3.70;1.20;;;;;;;31.12;32.99;100017.06;110189;1269;137215;-68
2023/06/16 07:03:58;;;;;;;1.80;1.10;;;;;;;31.02;33.38;100015.75;110166;1258;22131;-69
2023/06/16 07:06:25;;;;;;;6.40;1.00;;;;;;;30.94;33.49;100012.26;109926;1270;137673;-67
2023/06/16 07:08:53;;;;;;;2.40;1.10;;;;;;;30.97;33.47;100010.98;110138;1270;137537;-74
2023/06/16 07:11:21;;;;;;;3.60;0.90;;;;;;;30.98;32.92;100013.30;110235;1269;22378;-73
2023/06/16 07:13:48;;;;;;;6.40;1.10;;;;;;;30.74;33.52;100002.45;110079;1271;137357;-70
2023/06/16 07:16:16;;;;;;;4.50;1.00;;;;;;;30.69;34.27;100012.22;109974;1270;138018;-69
2023/06/16 07:18:43;;;;;;;6.40;1.70;;;;;;;30.48;35.17;100011.05;110091;1270;22333;-67
2023/06/16 07:21:10;;;;;;;2.40;1.10;;;;;;;30.45;34.85;100006.21;110163;1269;137316;-69
2023/06/16 07:23:38;;;;;;;3.70;1.50;;;;;;;30.50;34.82;100004.06;110025;1270;23151;-67
2023/06/16 07:26:06;;;;;;;6.60;1.10;;;;;;;30.34;35.98;100006.77;110191;1269;139777;-66
2023/06/16 07:28:33;;;;;;;3.10;0.90;;;;;;;30.30;36.01;100005.50;109996;1270;138128;-65
2023/06/16 07:31:00;;;;;;;1.50;0.80;;;;;;;30.35;35.05;100003.92;110073;1270;22694;-69
2023/06/16 07:33:28;;;;;;;3.60;0.80;;;;;;;30.45;34.36;100001.98;109887;1260;138706;-65
2023/06/16 07:35:55;;;;;;;4.10;0.90;;;;;;;30.42;33.78;100000.56;109983;1263;22396;-64
2023/06/16 07:38:22;;;;;;;3.60;0.60;;;;;;;30.22;33.96;99999.90;109980;1271;137062;-66
2023/06/16 07:40:50;;;;;;;2.70;0.90;;;;;;;30.13;33.78;99998.26;109846;1270;138934;-70
2023/06/16 07:43:17;;;;;;;6.60;1.10;;;;;;;29.93;34.03;99996.00;110088;1261;22130;-68
2023/06/16 07:45:44;;;;;;;1.00;0.60;;;;;;;29.69;34.96;99997.13;109945;1270;138541;-70
2023/06/16 07:48:13;;;;;;;2.40;0.50;;;;;;;29.61;35.19;99996.65;110015;1271;138017;-74
2023/06/16 07:50:41;;;;;;;2.30;1.40;;;;;;;29.49;35.72;100002.27;110071;1270;22690;-74
2023/06/16 07:53:08;;;;;;;4.00;1.00;;;;;;;29.38;35.47;100006.19;109934;1270;137860;-70
2023/06/16 07:55:36;;;;;;;4.00;1.00;;;;;;;29.20;35.18;100007.27;110141;1270;22383;-81
2023/06/16 07:58:04;;;;;;;3.40;0.50;;;;;;;29.16;35.07;100008.17;109867;1270;137874;-75
2023/06/16 08:00:31;;;;;;;3.10;1.00;;;;;;;29.06;35.31;100007.07;110113;1270;138580;-74
2023/06/16 08:02:58;;;;;;;6.70;1.10;;;;;;;28.90;35.53;100003.75;110133;1269;22575;-66
2023/06/16 08:05:26;;;;;;;1.30;0.80;;;;;;;28.73;35.94;100007.09;109988;1271;138955;-68
2023/06/16 08:07:53;;;;;;;10.10;2.50;;;;;;;28.63;35.99;100006.52;110038;1271;22344;-73
2023/06/16 08:10:21;;;;;;;4.20;1.40;;;;;;;28.55;36.36;100004.92;109998;1270;138131;-71
2023/06/16 08:12:49;;;;;;;2.00;0.70;;;;;;;28.47;36.45;100002.52;109939;1271;139342;-72
2023/06/16 08:15:17;;;;;;;1.70;0.60;;;;;;;28.42;37.21;100004.98;109979;1273;22445;-71
2023/06/16 08:17:44;;;;;;;1.80;1.20;;;;;;;28.11;37.33;99996.55;109962;1270;137928;-80
2023/06/16 08:20:12;;;;;;;3.90;1.20;;;;;;;28.33;37.38;100006.32;110013;1271;139216;-83
2023/06/16 08:22:39;;;;;;;3.70;0.90;;;;;;;28.36;37.13;100003.22;110087;1270;22229;-76
2023/06/16 08:25:07;;;;;;;3.50;0.80;;;;;;;28.26;37.51;100005.23;110042;1270;137454;-79
2023/06/16 08:27:34;;;;;;;1.70;0.50;;;;;;;28.23;37.33;100006.42;110084;1264;22370;-80
2023/06/16 08:30:03;;;;;;;4.00;1.10;;;;;;;28.26;37.06;100005.95;110031;1271;138298;-73
2023/06/16 08:32:31;;;;;;;3.30;0.70;;;;;;;28.28;37.38;100010.66;110029;1272;139574;-75
2023/06/16 08:34:58;;;;;;;6.80;1.10;;;;;;;28.16;37.53;100004.09;110089;1270;22320;-67
2023/06/16 08:37:26;;;;;;;7.30;0.60;;;;;;;28.07;38.16;100008.32;109967;1270;139112;-64
2023/06/16 08:39:57;;;;;;;3.80;0.60;;;;;;;28.16;38.01;100013.78;110235;1270;22309;-68
2023/06/16 08:42:25;;;;;;;4.20;0.80;;;;;;;28.15;38.18;100007.81;110047;1269;139309;-76
2023/06/16 08:44:54;;;;;;;2.30;0.70;;;;;;;28.02;39.41;100006.05;109859;1270;139562;-63
2023/06/16 08:47:22;;;;;;;9.60;0.90;;;;;;;27.91;39.77;99993.44;110153;1271;22365;-63
2023/06/16 08:49:52;;;;;;;4.90;0.80;;;;;;;27.82;40.24;99990.95;109867;1270;137936;-69
2023/06/16 08:52:21;;;;;;;4.20;1.20;;;;;;;27.84;40.27;99999.45;109979;1271;138656;-76
2023/06/16 08:55:02;;;;;;;3.00;0.70;;;;;;;27.93;40.03;99998.70;110077;1274;22423;-78
2023/06/16 08:57:30;;;;;;;5.40;0.80;;;;;;;28.03;39.74;99996.60;109990;1270;137303;-72
2023/06/16 09:00:00;;;;;;;1.10;0.70;;;;;;;28.11;39.60;99993.75;110070;1261;23042;-75
2023/06/16 09:02:30;;;;;;;2.20;0.80;;;;;;;28.08;39.71;99996.18;110183;1273;138786;-80
2023/06/16 09:04:59;;;;;;;4.20;1.00;;;;;;;27.92;39.97;99992.57;109921;1271;138216;-77
2023/06/16 09:07:27;;;;;;;3.30;0.90;;;;;;;27.60;41.68;99990.67;110115;1271;22102;-75
2023/06/16 09:09:55;;;;;;;8.80;1.10;;;;;;;27.60;41.80;99996.27;110150;1269;139948;-72
2023/06/16 09:12:22;;;;;;;5.90;1.30;;;;;;;27.62;41.90;99992.64;110159;1270;139397;-77
2023/06/16 09:14:50;;;;;;;4.90;2.00;;;;;;;27.72;41.40;99987.98;110409;1258;23099;-66
2023/06/16 09:17:24;;;;;;;2.30;1.20;;;;;;;27.82;41.41;99988.62;110118;1272;139460;-67
2023/06/16 09:19:52;;;;;;;1.40;0.80;;;;;;;27.87;40.56;99993.91;110193;1272;22338;-65
2023/06/16 09:22:23;;;;;;;9.20;1.40;;;;;;;27.87;40.29;99989.63;110055;1270;137899;-67
2023/06/16 09:24:57;;;;;;;4.60;0.90;;;;;;;27.79;40.13;99990.66;110027;1270;139007;-66
2023/06/16 09:27:49;;;;;;;1.50;1.20;;;;;;;27.58;40.72;99987.01;110057;1270;22341;-64
2023/06/16 09:30:18;;;;;;;1.30;0.70;;;;;;;27.55;41.20;99984.13;110016;1259;138081;-65
2023/06/16 09:32:48;;;;;;;4.90;1.40;;;;;;;27.59;41.32;99983.38;110102;1270;137993;-65
2023/06/16 09:35:20;;;;;;;5.80;1.10;;;;;;;27.67;41.11;99981.95;110348;1260;22336;-65
2023/06/16 09:37:54;;;;;;;2.80;0.90;;;;;;;27.75;41.34;99982.68;109961;1270;137430;-66
2023/06/16 09:40:29;;;;;;;3.80;1.10;;;;;;;27.81;40.90;99984.96;110003;1262;138230;-66
2023/06/16 09:42:59;;;;;;;3.40;1.20;;;;;;;27.70;40.55;99978.60;110101;1270;22336;-66
2023/06/16 09:45:29;;;;;;;1.80;0.80;;;;;;;27.52;40.88;99971.38;109986;1260;138184;-65
2023/06/16 09:48:02;;;;;;;3.50;1.20;;;;;;;27.34;41.60;99966.92;110060;1270;22322;-68
2023/06/16 09:50:30;;;;;;;4.50;0.70;;;;;;;27.28;41.88;99968.23;109952;1270;22405;-69
2023/06/16 09:53:01;;;;;;;3.80;0.70;;;;;;;27.26;41.51;99974.78;110047;1272;138501;-74
2023/06/16 09:55:28;;;;;;;1.90;0.90;;;;;;;27.28;41.26;99976.98;110230;1273;22320;-70
2023/06/16 09:57:56;;;;;;;2.00;0.90;;;;;;;27.28;40.95;99968.81;110198;1270;137470;-68
2023/06/16 10:00:25;;;;;;;3.50;0.90;;;;;;;27.23;41.20;99953.66;109958;1273;137706;-73
2023/06/16 10:02:56;;;;;;;3.60;0.90;;;;;;;27.29;41.28;99967.26;110221;1270;22349;-71
2023/06/16 10:05:25;;;;;;;2.10;1.00;;;;;;;27.31;41.06;99963.44;110026;1272;137482;-70
2023/06/16 10:07:56;;;;;;;3.70;1.10;;;;;;;27.39;41.06;99959.91;110118;1270;22325;-65
2023/06/16 10:10:29;;;;;;;3.10;1.30;;;;;;;27.50;41.19;99956.64;109815;1272;138410;-67
2023/06/16 10:12:59;;;;;;;3.90;0.70;;;;;;;27.62;41.25;99958.59;109945;1271;137462;-66
2023/06/16 10:15:28;;;;;;;4.80;1.10;;;;;;;27.71;40.97;99960.99;110031;1271;22323;-70
2023/06/16 10:18:03;;;;;;;2.90;1.60;;;;;;;27.78;40.24;99961.86;109983;1261;137249;-69
2023/06/16 10:20:37;;;;;;;3.30;1.00;;;;;;;27.80;39.81;99952.78;110288;1269;138767;-69
2023/06/16 10:23:05;;;;;;;1.30;1.00;;;;;;;27.78;39.78;99954.48;110254;1272;22204;-68
2023/06/16 10:25:33;;;;;;;1.30;1.00;;;;;;;27.79;39.80;99950.30;110108;1270;137684;-69
2023/06/16 10:28:07;;;;;;;5.40;0.90;;;;;;;27.76;39.93;99949.15;110344;1269;22322;-72
2023/06/16 10:30:35;;;;;;;3.60;0.90;;;;;;;27.69;39.89;99948.66;109944;1271;22406;-72
2023/06/16 10:33:25;;;;;;;2.50;1.20;;;;;;;27.66;39.85;99944.16;110091;1270;137574;-70
2023/06/16 10:35:55;;;;;;;1.40;1.10;;;;;;;27.64;39.85;99935.16;110070;1270;23067;-72
2023/06/16 10:38:42;;;;;;;3.70;1.00;;;;;;;27.70;39.94;99933.27;110067;1271;22369;-67
2023/06/16 10:41:12;;;;;;;6.00;1.40;;;;;;;27.70;40.10;99930.09;110040;1270;137617;-72
2023/06/16 10:43:39;;;;;;;3.30;0.80;;;;;;;27.68;40.07;99928.81;110186;1270;22328;-72
2023/06/16 10:46:17;;;;;;;2.90;1.10;;;;;;;27.70;39.97;99925.54;109970;1273;137394;-64
2023/06/16 10:49:15;;;;;;;2.80;1.30;;;;;;;27.74;39.77;99923.92;109970;1271;139011;-69
2023/06/16 10:51:52;;;;;;;3.00;1.10;;;;;;;27.80;39.61;99923.37;110172;1271;22300;-71
2023/06/16 10:54:31;;;;;;;3.30;1.40;;;;;;;27.83;39.54;99920.88;110159;1270;139054;-71
2023/06/16 10:57:06;;;;;;;2.10;1.20;;;;;;;27.85;39.00;99917.53;110129;1266;137742;-71
2023/06/16 11:00:12;;;;;;;2.50;0.90;;;;;;;27.84;39.00;99910.79;110220;1270;23227;-71
2023/06/16 11:02:50;;;;;;;1.80;1.30;;;;;;;27.84;39.83;99903.52;110277;1269;22434;-69
2023/06/16 11:05:22;;;;;;;3.40;1.00;;;;;;;27.82;40.25;99902.29;110201;1257;139649;-69
2023/06/16 11:08:05;;;;;;;11.70;1.20;;;;;;;27.83;40.23;99901.33;110235;1259;22222;-69
2023/06/16 11:10:50;;;;;;;1.70;1.00;;;;;;;27.85;39.71;99908.36;110086;1270;22593;-68
2023/06/16 11:13:22;;;;;;;1.20;0.60;;;;;;;27.78;39.16;99911.09;110041;1270;137702;-68
2023/06/16 11:15:52;;;;;;;2.50;1.00;;;;;;;27.68;39.23;99908.61;110174;1262;22311;-67
2023/06/16 11:18:24;;;;;;;2.00;1.20;;;;;;;27.59;39.16;99902.93;109981;1270;137143;-67
2023/06/16 11:20:59;;;;;;;2.60;1.30;;;;;;;27.55;39.39;99897.11;109970;1262;139081;-69
2023/06/16 11:23:27;;;;;;;4.80;1.30;;;;;;;27.52;39.54;99893.73;110118;1272;22403;-69